Time;durP1;ratioP1;P1;durP2;ratioP2;P2;SDS_P1;SDS_P2;PMS_P1;PMS_P2;Temp;Humidity;BMP_temperature;BMP_pressure;BME280_temperature;BME280_humidity;BME280_pressure;Samples;Min_cycle;Max_cycle;Signal;HPM_P1;HPM_P2
2022/09/24 00:01:23;;;;;;;4.50;3.40;;;;;;;12.64;100.00;97519.06;18363264;32;20057;-63
2022/09/24 00:11:27;;;;;;;4.60;4.05;;;;;;;12.65;100.00;97553.25;18286522;32;20078;-63
2022/09/24 00:21:33;;;;;;;6.28;4.65;;;;;;;12.59;100.00;97551.66;18298602;32;20080;-63
2022/09/24 00:31:35;;;;;;;6.28;4.15;;;;;;;12.60;100.00;97528.88;18318268;32;20120;-63
2022/09/24 00:41:40;;;;;;;3.95;2.90;;;;;;;12.66;100.00;97512.25;18306822;32;20446;-63
2022/09/24 00:51:46;;;;;;;3.58;3.22;;;;;;;12.70;100.00;97498.91;18359952;32;20474;-63
2022/09/24 01:01:50;;;;;;;3.62;2.83;;;;;;;12.74;100.00;97512.72;18359984;32;20088;-63
2022/09/24 01:11:55;;;;;;;;;;;;;;;12.76;100.00;97478.78;18358347;32;20114;-63
2022/09/24 01:22:07;;;;;;;3.42;2.95;;;;;;;12.74;100.00;97469.31;18432671;32;20018;-63
2022/09/24 01:32:27;;;;;;;3.17;2.55;;;;;;;12.73;100.00;97454.94;18282393;32;20074;-63
2022/09/24 01:42:36;;;;;;;3.62;2.67;;;;;;;12.70;100.00;97472.59;18294552;32;20070;-63
2022/09/24 01:53:23;;;;;;;6.07;2.37;;;;;;;12.67;100.00;97473.16;18294870;32;20129;-63
2022/09/24 02:03:29;;;;;;;3.42;2.40;;;;;;;12.67;100.00;97432.47;18165790;32;20367;-61
2022/09/24 02:13:42;;;;;;;3.62;2.60;;;;;;;12.66;100.00;97447.16;18293787;32;20492;-61
2022/09/24 02:23:50;;;;;;;2.95;2.30;;;;;;;12.64;100.00;97424.91;18306315;32;20088;-60
2022/09/24 02:44:15;;;;;;;4.87;2.20;;;;;;;12.60;100.00;97409.53;18368538;32;20083;-63
2022/09/24 02:54:17;;;;;;;3.23;2.17;;;;;;;12.59;100.00;97424.19;18367740;32;20438;-63
2022/09/24 03:04:20;;;;;;;4.15;2.08;;;;;;;12.56;100.00;97430.97;18468290;32;20108;-63
2022/09/24 03:14:23;;;;;;;3.42;1.67;;;;;;;12.56;100.00;97428.28;18503843;32;20093;-63
2022/09/24 03:24:25;;;;;;;2.83;1.58;;;;;;;12.51;100.00;97450.84;18504010;32;20112;-63
2022/09/24 03:34:27;;;;;;;2.70;1.27;;;;;;;12.48;100.00;97445.97;18503307;32;20064;-63
2022/09/24 03:44:30;;;;;;;2.50;1.83;;;;;;;12.42;100.00;97433.59;18502767;32;20056;-63
2022/09/24 03:54:32;;;;;;;2.15;1.33;;;;;;;12.41;100.00;97425.75;18501937;32;20053;-63
2022/09/24 04:04:35;;;;;;;2.15;1.25;;;;;;;12.36;100.00;97426.59;18501324;32;20076;-63
2022/09/24 04:14:37;;;;;;;2.25;1.20;;;;;;;12.34;100.00;97426.88;18486625;32;20053;-62
2022/09/24 04:24:39;;;;;;;2.15;1.42;;;;;;;12.32;100.00;97418.22;18361010;32;20134;-62
2022/09/24 04:34:42;;;;;;;2.17;1.15;;;;;;;12.27;100.00;97412.84;18348708;32;20070;-62
2022/09/24 04:44:46;;;;;;;1.87;1.30;;;;;;;12.26;100.00;97410.44;18361011;32;20232;-63
2022/09/24 04:54:51;;;;;;;2.22;1.48;;;;;;;12.24;100.00;97402.59;18380929;32;20139;-62
2022/09/24 05:04:53;;;;;;;3.47;1.45;;;;;;;12.27;100.00;97406.62;18497750;32;20056;-63
2022/09/24 05:14:56;;;;;;;4.28;1.40;;;;;;;12.22;100.00;97409.41;18497860;32;20053;-62
2022/09/24 05:24:58;;;;;;;1.80;1.33;;;;;;;12.20;100.00;97407.78;18496897;32;20171;-63
2022/09/24 05:35:01;;;;;;;2.83;1.60;;;;;;;12.23;100.00;97405.59;18496230;32;20094;-62
2022/09/24 05:45:05;;;;;;;1.60;1.20;;;;;;;12.22;100.00;97417.53;18294372;32;20065;-63
2022/09/24 05:55:09;;;;;;;1.67;1.30;;;;;;;12.20;100.00;97426.75;18294105;32;20501;-63
2022/09/24 06:05:12;;;;;;;1.70;1.37;;;;;;;12.22;100.00;97433.78;18293786;32;20058;-63
2022/09/24 06:15:15;;;;;;;1.37;1.20;;;;;;;12.24;100.00;97431.59;18402013;32;20057;-62
2022/09/24 06:25:17;;;;;;;1.83;1.20;;;;;;;12.28;100.00;97430.75;18430083;32;20062;-62
2022/09/24 06:35:20;;;;;;;2.55;1.42;;;;;;;12.35;100.00;97438.53;18429883;32;20528;-63
2022/09/24 06:45:25;;;;;;;1.25;1.00;;;;;;;12.43;100.00;97443.34;18432995;32;20064;-62
2022/09/24 06:55:28;;;;;;;2.28;1.50;;;;;;;12.50;100.00;97454.66;18441030;32;20065;-62
2022/09/24 07:05:32;;;;;;;1.33;1.12;;;;;;;12.67;100.00;97464.22;18482473;32;20057;-63
2022/09/24 07:15:34;;;;;;;1.70;1.33;;;;;;;12.79;100.00;97456.50;18490200;32;20044;-63
2022/09/24 07:25:37;;;;;;;2.03;1.40;;;;;;;12.92;100.00;97459.59;18490731;32;20472;-63
2022/09/24 07:35:40;;;;;;;2.25;1.45;;;;;;;13.00;100.00;97467.88;18503161;32;20057;-63
2022/09/24 07:45:42;;;;;;;3.00;2.00;;;;;;;13.08;100.00;97469.16;18475958;32;20068;-62
2022/09/24 07:55:45;;;;;;;3.00;2.03;;;;;;;13.29;100.00;97466.16;18502358;32;20057;-63
2022/09/24 08:05:48;;;;;;;2.72;1.95;;;;;;;13.49;100.00;97463.19;18501709;32;20071;-62
2022/09/24 08:16:00;;;;;;;1.92;1.55;;;;;;;13.51;100.00;97468.34;18486735;32;20403;-62
2022/09/24 08:26:03;;;;;;;2.22;1.98;;;;;;;13.55;100.00;97475.63;18500369;32;20105;-62
2022/09/24 08:36:08;;;;;;;4.00;2.33;;;;;;;13.67;100.00;97491.44;18499423;32;20060;-63
2022/09/24 08:56:45;;;;;;;2.53;1.75;;;;;;;13.82;100.00;97497.78;18498150;32;20071;-63
2022/09/24 09:07:20;;;;;;;3.25;2.03;;;;;;;13.70;100.00;97511.78;18497192;32;20107;-62
2022/09/24 09:17:33;;;;;;;3.85;2.50;;;;;;;13.80;100.00;97506.22;18482985;32;20108;-63
2022/09/24 09:27:36;;;;;;;2.27;2.07;;;;;;;14.02;100.00;97515.69;18483017;32;20077;-62
2022/09/24 09:37:45;;;;;;;2.20;1.65;;;;;;;14.16;100.00;97508.37;18496306;32;20438;-62
2022/09/24 09:48:00;;;;;;;2.42;1.33;;;;;;;14.19;100.00;97510.50;18475878;32;20354;-63
2022/09/24 09:58:17;;;;;;;3.10;1.95;;;;;;;14.19;100.00;97502.31;18495314;32;20071;-63
2022/09/24 10:08:21;;;;;;;2.30;1.55;;;;;;;14.19;100.00;97518.66;18495386;32;20089;-62
2022/09/24 10:18:27;;;;;;;3.35;2.60;;;;;;;14.30;100.00;97502.16;18497845;32;20057;-63
2022/09/24 10:39:13;;;;;;;2.60;1.60;;;;;;;14.66;100.00;97486.06;18506842;32;20104;-62
2022/09/24 10:49:44;;;;;;;2.22;1.73;;;;;;;14.96;100.00;97472.94;18491856;32;20065;-62
2022/09/24 11:00:02;;;;;;;2.42;1.40;;;;;;;15.12;100.00;97478.87;18505059;32;20101;-63
2022/09/24 11:10:19;;;;;;;1.95;1.42;;;;;;;15.23;100.00;97477.53;18491390;32;20150;-63
2022/09/24 11:20:28;;;;;;;1.98;1.48;;;;;;;15.53;100.00;97463.56;18504050;32;20049;-63
2022/09/24 11:30:55;;;;;;;1.33;1.20;;;;;;;15.88;100.00;97461.94;18502493;32;20061;-60
2022/09/24 11:41:26;;;;;;;3.80;1.50;;;;;;;15.86;100.00;97445.09;18502452;32;20089;-60
2022/09/24 11:51:35;;;;;;;2.03;1.45;;;;;;;16.16;100.00;97442.72;18502380;32;20108;-60
2022/09/24 12:01:45;;;;;;;3.75;1.40;;;;;;;16.71;100.00;97443.44;18500555;32;20327;-60
2022/09/24 12:12:06;;;;;;;2.17;1.25;;;;;;;17.50;100.00;97414.38;18487292;32;20057;-60
2022/09/24 12:22:10;;;;;;;2.50;1.60;;;;;;;17.92;100.00;97413.88;18485683;32;20057;-60
2022/09/24 12:42:48;;;;;;;2.20;1.40;;;;;;;17.41;97.32;97394.44;18498014;32;20044;-60
2022/09/24 12:52:51;;;;;;;2.97;1.25;;;;;;;17.33;98.46;97387.84;18483264;32;20064;-60
2022/09/24 13:02:55;;;;;;;1.55;1.15;;;;;;;16.67;96.32;97402.31;18483370;32;20063;-60
2022/09/24 13:13:01;;;;;;;;;;;;;;;16.07;100.00;97398.22;18497638;32;20064;-59
2022/09/24 13:23:16;;;;;;;2.50;1.60;;;;;;;15.64;100.00;97385.09;18483286;32;19967;-60
2022/09/24 13:33:30;;;;;;;2.53;1.42;;;;;;;15.36;100.00;97388.75;18496303;32;20057;-59
2022/09/24 13:43:47;;;;;;;3.85;1.87;;;;;;;15.33;100.00;97381.16;18469446;32;20084;-60
2022/09/24 13:54:25;;;;;;;2.55;1.37;;;;;;;15.32;100.00;97389.66;18495299;32;20143;-62
2022/09/24 14:04:27;;;;;;;2.50;1.58;;;;;;;15.21;100.00;97389.91;18492338;32;20075;-62
2022/09/24 14:14:33;;;;;;;1.87;1.48;;;;;;;15.44;100.00;97365.38;18495201;32;20056;-62
2022/09/24 14:24:44;;;;;;;2.25;1.50;;;;;;;15.61;100.00;97359.28;18487331;32;20048;-63
2022/09/24 14:34:52;;;;;;;2.20;1.70;;;;;;;15.64;100.00;97360.56;18480242;32;20053;-61
2022/09/24 14:44:55;;;;;;;4.05;1.42;;;;;;;15.60;100.00;97352.19;18480324;32;20346;-61
2022/09/24 14:55:18;;;;;;;3.20;2.30;;;;;;;15.74;100.00;97352.12;18480361;32;20053;-62
2022/09/24 15:05:26;;;;;;;5.35;2.65;;;;;;;15.51;100.00;97352.16;18497076;32;20053;-61
2022/09/24 15:15:30;;;;;;;1.85;1.40;;;;;;;15.13;100.00;97349.78;18504001;32;20079;-61
2022/09/24 15:25:34;;;;;;;;;;;;;;;14.88;100.00;97360.12;18484888;32;20044;-61
2022/09/24 15:35:36;;;;;;;2.62;2.00;;;;;;;14.81;100.00;97353.47;18489743;32;19963;-61
2022/09/24 15:45:39;;;;;;;4.30;2.35;;;;;;;14.87;100.00;97344.91;18364809;32;20065;-61
2022/09/24 15:55:45;;;;;;;4.00;2.65;;;;;;;15.16;100.00;97338.25;18174854;32;20078;-61
2022/09/24 16:05:47;;;;;;;5.03;2.97;;;;;;;15.40;100.00;97345.31;18174232;32;20243;-61
2022/09/24 16:15:50;;;;;;;3.10;2.00;;;;;;;15.53;100.00;97340.94;18273413;32;20099;-61
2022/09/24 16:25:59;;;;;;;2.37;1.50;;;;;;;15.35;100.00;97326.41;18306243;32;20057;-61
2022/09/24 16:36:06;;;;;;;1.85;1.23;;;;;;;15.04;100.00;97324.38;18435297;32;20080;-61
2022/09/24 16:46:09;;;;;;;2.83;1.87;;;;;;;14.64;100.00;97326.91;18435326;32;20058;-61
2022/09/24 16:56:15;;;;;;;2.58;1.58;;;;;;;14.30;100.00;97328.13;18432960;32;20057;-61
2022/09/24 17:06:24;;;;;;;2.70;1.70;;;;;;;14.01;100.00;97340.09;18470723;32;20071;-61
2022/09/24 17:16:29;;;;;;;1.95;1.50;;;;;;;13.77;100.00;97338.31;18483480;32;20377;-61
2022/09/24 17:26:31;;;;;;;2.17;1.60;;;;;;;13.48;100.00;97328.50;18496725;32;20061;-61
2022/09/24 17:36:35;;;;;;;5.95;1.70;;;;;;;13.22;100.00;97336.22;18482311;32;20063;-61
2022/09/24 17:46:38;;;;;;;2.33;1.50;;;;;;;13.00;100.00;97336.81;18496161;32;20074;-61
2022/09/24 17:56:41;;;;;;;4.68;1.75;;;;;;;12.67;100.00;97348.37;18357525;32;20081;-61
2022/09/24 18:06:45;;;;;;;4.87;1.70;;;;;;;12.44;100.00;97351.94;18344150;32;20488;-61
2022/09/24 18:16:49;;;;;;;2.47;1.60;;;;;;;12.19;100.00;97367.41;18357141;32;20152;-63
2022/09/24 18:26:51;;;;;;;2.20;1.25;;;;;;;11.99;100.00;97373.84;18354906;32;20057;-63
2022/09/24 18:36:54;;;;;;;2.30;1.90;;;;;;;11.79;100.00;97380.25;18430020;32;20388;-63
2022/09/24 18:46:56;;;;;;;1.92;1.50;;;;;;;11.65;100.00;97385.53;18440279;32;20057;-63
2022/09/24 18:56:59;;;;;;;4.37;2.70;;;;;;;11.52;100.00;97382.38;18441332;32;20129;-64
2022/09/24 19:07:02;;;;;;;3.53;2.50;;;;;;;11.38;100.00;97389.50;18495518;32;20110;-63
2022/09/24 19:17:05;;;;;;;2.72;2.20;;;;;;;11.20;100.00;97388.28;18504786;32;20106;-63
2022/09/24 19:27:08;;;;;;;1.73;1.47;;;;;;;10.98;100.00;97386.78;18504143;32;20068;-63
2022/09/24 19:37:10;;;;;;;2.60;1.87;;;;;;;10.87;100.00;97392.53;18476944;32;20054;-63
2022/09/24 19:47:13;;;;;;;2.53;2.00;;;;;;;10.72;100.00;97386.13;18502982;32;20086;-63
2022/09/24 19:57:17;;;;;;;3.00;2.13;;;;;;;10.61;100.00;97374.53;18495277;32;20056;-63
2022/09/24 20:07:20;;;;;;;;;;;;;;;10.58;100.00;97376.97;18436205;32;20046;-63
2022/09/24 20:17:23;;;;;;;3.10;2.03;;;;;;;10.49;100.00;97379.47;18436069;32;20348;-63
2022/09/24 20:37:47;;;;;;;3.97;3.30;;;;;;;10.49;100.00;97384.88;18435356;32;20448;-63
2022/09/24 20:47:51;;;;;;;4.87;3.30;;;;;;;10.51;100.00;97397.03;18434792;32;20073;-63
2022/09/24 20:57:54;;;;;;;3.83;3.40;;;;;;;10.46;100.00;97378.09;18432846;32;20053;-63
2022/09/24 21:07:56;;;;;;;3.93;3.07;;;;;;;10.43;100.00;97389.47;18493432;32;20073;-63
2022/09/24 21:18:02;;;;;;;4.50;3.27;;;;;;;10.47;100.00;97377.03;18497505;32;20057;-63
2022/09/24 21:28:24;;;;;;;4.07;3.30;;;;;;;10.39;100.00;97383.00;18497513;32;20065;-63
2022/09/24 21:38:27;;;;;;;4.80;4.07;;;;;;;10.37;100.00;97379.75;18496420;32;20066;-63
2022/09/24 21:48:31;;;;;;;4.63;3.10;;;;;;;10.39;100.00;97383.00;18481418;32;20045;-63
2022/09/24 21:58:34;;;;;;;5.13;3.73;;;;;;;10.53;100.00;97398.66;18495886;32;20057;-63
2022/09/24 22:08:37;;;;;;;7.47;4.67;;;;;;;10.64;100.00;97389.41;18481280;32;20057;-63
2022/09/24 22:18:40;;;;;;;7.60;4.27;;;;;;;10.70;100.00;97396.38;18477875;32;20425;-63
2022/09/24 22:28:43;;;;;;;6.93;5.23;;;;;;;10.79;100.00;97392.03;18493763;32;20452;-62
2022/09/24 22:38:48;;;;;;;5.87;4.30;;;;;;;10.90;100.00;97394.69;18504635;32;20103;-63
2022/09/24 22:48:50;;;;;;;4.60;4.07;;;;;;;10.96;100.00;97382.75;18489060;32;20110;-63
2022/09/24 22:58:56;;;;;;;4.65;3.83;;;;;;;11.00;100.00;97371.09;18505554;32;20052;-63
2022/09/24 23:09:00;;;;;;;5.18;3.67;;;;;;;11.07;100.00;97362.63;18367066;32;20069;-63
2022/09/24 23:19:05;;;;;;;5.43;3.97;;;;;;;11.10;100.00;97362.09;18366622;32;20403;-63
2022/09/24 23:29:09;;;;;;;5.50;4.35;;;;;;;11.18;100.00;97361.50;18365637;32;20509;-63
2022/09/24 23:39:11;;;;;;;6.07;5.40;;;;;;;11.22;100.00;97372.56;18386205;32;20388;-63
2022/09/24 23:49:13;;;;;;;7.43;6.00;;;;;;;11.26;100.00;97370.91;18502959;32;20105;-63
2022/09/24 23:59:16;;;;;;;11.70;5.93;;;;;;;11.19;100.00;97373.94;18487944;32;20100;-63
